AirNav   Phillips 66 Aviation Fuel
 
 1484 users online  

6N5 East 34th Street Heliport
New York, New York, USA

GOING TO NEW YORK?


FAA INFORMATION EFFECTIVE 24 MAY 2018

Location

FAA Identifier: 6N5
Lat/Long: 40-44-33.3660N / 073-58-19.4990W
40-44.556100N / 073-58.324983W
40.7426017 / -73.9720831
(estimated)
Elevation: 10 ft. / 3 m (estimated)
Variation: 13W (1985)
From city: HELIPORT LCTD 5SW OF LAGUARDIA ARPT.
Time zone: UTC -4 (UTC -5 during Standard Time)
Zip code: 10010

Heliport Operations

Heliport use: Open to the public
Control tower: no
ARTCC: NEW YORK CENTER
FSS: NEW YORK FLIGHT SERVICE STATION
NOTAMs facility: ISP (NOTAM-D service available)
Attendance: MON-FRI 0800-2000
Wind indicator: yes
Segmented circle: no
Lights: SS-SR
Beacon: white-green-yellow (heliport)
DUSK-DAWN. BCN LCTD ABOVE OFFICE TRAILER BLO ELEVATED HIGHWAY.
Landing fee: yes

Heliport Communications

CTAF/UNICOM: 123.075
NEW YORK APPROACH: 120.8
NEW YORK DEPARTURE: 120.8
WX AWOS-3PT at JRB (3 nm SW): 128.175 (212-425-1534)
WX ASOS at LGA (5 nm NE): PHONE 718-672-6317
WX ASOS at TEB (8 nm NW): PHONE 201-393-0855
WX ASOS at EWR (9 nm W): PHONE 973-621-2892
WX ASOS at JFK (11 nm SE): PHONE 718-656-0956
WX AWOS-3 at LDJ (14 nm SW): 124.025 (908-862-7383)
WX ASOS at CDW (16 nm NW): PHONE 973-575-4417

Nearby radio navigation aids

VOR radial/distance  VOR name  Freq  Var
LGAr254/5.3LA GUARDIA VOR/DME113.1012W
TEBr158/7.6TETERBORO VOR/DME108.4011W
CRIr347/8.6CANARSIE VOR/DME112.3011W
JFKr318/11.3KENNEDY VOR/DME115.9012W
COLr029/27.2COLTS NECK VOR/DME115.4011W
DPKr276/30.5DEER PARK VOR/DME117.7012W
SAXr138/32.2SPARTA VORTAC115.7011W
SBJr085/36.3SOLBERG VOR/DME112.9010W
CMKr221/36.8CARMEL VOR/DME116.6012W
BWZr106/38.8BROADWAY VOR/DME114.2011W

 
NDB name  Hdg/Dist  Freq  Var  ID
TORBY129/8.221412WTE - .
BRIDGE351/11.241412WOGY --- --. -.--
CHATHAM103/20.825413WCAT -.-. .- -
BABYLON293/27.127514WBBN -... -... -.

Heliport Services

Fuel available: A1
Parking: tiedowns
Airframe service: NONE
Powerplant service: NONE

Runway Information

Helipad H-T

Dimensions: 44 x 44 ft. / 13 x 13 m
ADD'L 7.5 TO BULKHEAD.
Surface: asphalt, in good condition
Runway edge lights: non-standard
Latitude: 40-44.556100N
Longitude: 073-58.324983W
Elevation: 10.0 ft.
Traffic pattern: leftleft

Helipad H2

Dimensions: 44 x 44 ft. / 13 x 13 m
ADD'L 7.5 TO BULKHEAD.
Surface: asphalt, in good condition
Runway edge lights: non-standard
Traffic pattern: leftleft

Helipad H3

Dimensions: 44 x 44 ft. / 13 x 13 m
ADD'L 7.5 TO BULKHEAD.
Surface: asphalt, in good condition
Runway edge lights: non-standard
Traffic pattern: leftleft

Helipad H4

Dimensions: 44 x 44 ft. / 13 x 13 m
ADD'L 7.5 TO BULKHEAD.
Surface: asphalt, in good condition
Runway edge lights: non-standard
Traffic pattern: leftleft

Helipad H1

Dimensions: 37 x 37 ft. / 11 x 11 m
ADD'L 7.5 FT TO BULKHEAD.
Surface: asphalt/concrete, in good condition
Runway edge lights: non-standard
NSTD GREEN PERIMETER LGTS.
Traffic pattern: leftleft
Markings: NSTD, in good condition

Heliport Ownership and Management from official FAA records

Ownership: Publicly-owned
Owner: ECONOMIC DEVELOPMENT CORP
110 WILLIAM ST
NEW YORK, NY 10038
Phone 212-889-2551
Manager: PATRICIA WAGNER
ATLANTIC AVIATION, 499 E. 34TH ST. & F.D.R. DR.
NEW YORK, NY 10016
Phone 212-889-6370

Heliport Operational Statistics

Aircraft operations: avg 50/day *
96% air taxi
3% transient general aviation
2% military
* for 12-month period ending 07 September 2017

Additional Remarks

HELIPORT CLSD SAT & SUN.
ALL OPNS OVER EAST RIVER.
NO LATE OR EARLY OPNS AVBL.
CALL AHEAD FOR PARKING.
"NX RAD" WX SYSTEM AVBL.
IFR CLNC LGA 1-718-779-7901.
A52-H1 RWY H1 LGTD BLDG AND FENCE NW AND SE; ELEVATED HIGHWAY AND BUILDING TO THE WEST, FENCE AND BUILDINGS TO THE NORTH AND SOUTH. RIVER ON THE EAST SIDE,SAILBOATS AND FERRIES POSSIBLY BY EDGE OF PAD.

Instrument Procedures

NOTE: All procedures below are presented as PDF files. If you need a reader for these files, you should download the free Adobe Reader.

NOT FOR NAVIGATION. Please procure official charts for flight.
FAA instrument procedures published for use from 24 May 2018 at 0901Z to 21 June 2018 at 0900Z.

NOTE: Special Take-Off Minimums/Departure Procedures apply   download (592KB)

Other nearby airports with instrument procedures:

KJRA - West 30th St Heliport (2 nm NW)
KJRB - Downtown Manhattan/Wall Street Heliport (3 nm SW)
KLGA - LaGuardia Airport (5 nm NE)
KTEB - Teterboro Airport (8 nm NW)
KEWR - Newark Liberty International Airport (9 nm W)
KJFK - John F Kennedy International Airport (11 nm SE)
KLDJ - Linden Airport (14 nm SW)
KCDW - Essex County Airport (16 nm NW)
N07 - Lincoln Park Airport (20 nm NW)
 
Loc | Ops | Rwys | IFR | FBO | Links
Com | Nav | Svcs | Stats | Notes

AirNav Hotels Sweepstakes
 
Area around 6N5 (East 34th Street Heliport)
 
Road maps at: MapQuest Bing Google
 
Aerial photo
WARNING: Photo may not be current or correct
Aerial photo of 6N5 (East 34th Street Heliport)
Photo by Dave Lu
Photo taken 26-Sep-2012
looking northeast.

Do you have a better or more recent aerial photo of East 34th Street Heliport that you would like to share? If so, please send us your photo.

 
Sectional chart

 
Airport distance calculator
Flying to East 34th Street Heliport? Find the distance to fly.

From to 6N5

Sunrise and sunset
Times for 18-Jun-2018
 Local
(UTC-4)
 Zulu
(UTC)
Morning civil twilight04:5208:52
Sunrise05:2509:25
Sunset20:2900:29
Evening civil twilight21:0201:02

Current date and time
Zulu (UTC)  18-Jun-2018 21:20:48
Local (UTC-4)  18-Jun-2018 17:20:48
 
METAR
KNYC 
2nm N 
182051Z AUTO VRB05KT 8SM BKN055 32/21 A2986 RMK AO2 SLP103 T03220211 56026 $
KJRB 
3nm SW 
182056Z AUTO 10SM FEW050 32/22 A2985 RMK AO2 SLP106 T03170217 56029 $
KLGA 
5nm NE 
182051Z 18011KT 10SM SCT055 BKN250 32/20 A2983 RMK AO2 SLP101 T03220200 56027
KTEB 
8nm NW 
182051Z 24014G22KT 10SM FEW050 34/22 A2981 RMK AO2 SLP094 T03440222 56028
KEWR 
10nm W 
182051Z 23017G24KT 10SM FEW050 BKN250 36/21 A2983 RMK AO2 SLP101 T03560211 56027
KJFK 
11nm SE 
182051Z 19022G28KT 10SM FEW055 BKN250 26/19 A2987 RMK AO2 PK WND 19029/2041 SLP114 TCU DSNT NW T02560194 56027
KLDJ 
14nm SW 
181435Z AUTO 27005KT 10SM CLR 29/19 A3000 RMK AO2 T02850193
KCDW 
16nm NW 
182053Z 24007KT 190V290 10SM CLR 33/22 A2983 RMK AO2 SLP103 T03280222 56028
TAF
KLGA 
5nm NE 
182001Z 1820/1924 18017G25KT P6SM FEW050 BKN250 FM182200 19015G21KT P6SM VCTS BKN050CB TEMPO 1822/1824 23012G18KT FM190000 24011KT P6SM VCTS BKN050CB BKN120 FM190200 24010KT P6SM SCT050 BKN120 FM190500 25011KT P6SM VCTS SCT050CB BKN100 FM190800 28010KT P6SM BKN050 FM191100 31012KT P6SM SCT035 BKN050 FM191400 35014G20KT P6SM BKN250 FM192200 35010G16KT P6SM SCT250
KTEB 
8nm NW 
182001Z 1820/1924 23014G21KT P6SM FEW050 BKN250 FM190000 22010KT P6SM VCTS BKN045CB BKN120 FM190200 23008KT P6SM SCT045 BKN100 FM190400 23005KT P6SM VCTS BKN050CB FM190800 26005KT P6SM SCT040 BKN050 FM191100 31008KT P6SM SCT035 BKN050 FM191400 34012G18KT P6SM BKN250 FM192200 34008KT P6SM SCT250
KEWR 
10nm W 
182001Z 1820/1924 23015G23KT P6SM FEW050 BKN250 FM190000 23012G18KT P6SM VCTS BKN050CB BKN120 FM190200 24012KT P6SM SCT045 BKN100 FM190400 24009KT P6SM VCTS SCT050CB BKN120 FM190800 25007KT P6SM BKN050 FM191100 31010KT P6SM SCT035 BKN050 FM191400 34014G20KT P6SM BKN250 FM192200 34010G16KT P6SM SCT250
KJFK 
11nm SE 
182001Z 1820/1924 19020G25KT P6SM BKN250 FM190000 21018KT P6SM VCTS SCT045CB BKN120 FM190200 21014KT P6SM SCT050 BKN120 FM190500 25011KT P6SM VCTS SCT050CB BKN100 FM190800 28010KT P6SM BKN050 FM191000 27011KT P6SM SCT050 BKN090 FM191400 34014G20KT P6SM BKN250 FM192200 34010G16KT P6SM SCT250
NOTAMs
Click for the latest NOTAMs
NOTAMs are issued by the DoD/FAA and will open in a separate window not controlled by AirNav.

 

 
 

FBO, Fuel Providers, and Aircraft Ground Support

  
 Business Name 
 
 Contact 
 
 Services / Description 
 
Fuel Prices
 
Comments
  
Atlantic Aviation UNICOM 123.075
212-889-2319
212-889-2551
[web site]
[email]
New York City's Award-Winning Heliport
More info and photos of Atlantic Aviation
independent
Jet A
FS $8.15 
 Updated 07-Dec-2015
 
   write
FS=Full service
Update Fuel Prices
 

Would you like to see your business listed on this page?

 If your business provides an interesting product or service to pilots, flight crews, aircraft, or users of the East 34th Street Heliport, you should consider listing it here.  To start the listing process, click on the button below
 
Add a business
 

Other Pages about East 34th Street Heliport

www.amport-aviation.com/...
 
Update a link
 
Copyright © AirNav, LLC. All rights reserved. Privacy Policy  Contact